Faxon, Pennsylvania
Current Conditions -  °F | °C
As of 2:54 PM on Friday 21 Nov 2014 (Local Time) from KIPT Reporting Station
Few Clouds Few Clouds  
Wind Chill: 24°   Ceiling: Unl
Heat Index: 33°   Visibility: 10mi
Dew Point:   Wind: 12mph
Humidity: 32%   Direction: 300°WNW
Pressure: 30.38"   Gusts: NA
Location:  41.246°N, 77.0167°W
Report Text: KIPT 211954Z 30010KT 10SM FEW060 01/M14 A3038 RMK AO2 SLP295 T00061144
Loading
Personal Weather Stations






























Interactive Weather Map New forecast layout! Learn more

10-Day Weather Forecast

Advertisements
Track Severe Weather on mobile